Time;durP1;ratioP1;P1;durP2;ratioP2;P2;SDS_P1;SDS_P2;PMS_P1;PMS_P2;Temp;Humidity;BMP_temperature;BMP_pressure;BME280_temperature;BME280_humidity;BME280_pressure;Samples;Min_cycle;Max_cycle;Signal;HPM_P1;HPM_P2
2022/02/22 00:00:49;;;;;;;33.17;24.87;;;;;;;10.43;78.99;93668.00;5095161;28;20446;-81
2022/02/22 00:03:15;;;;;;;35.60;24.50;;;;;;;10.45;78.34;93668.66;5094970;28;20440;-81
2022/02/22 00:05:42;;;;;;;31.50;22.70;;;;;;;10.49;78.44;93658.66;5094721;28;20966;-82
2022/02/22 00:08:09;;;;;;;28.83;20.27;;;;;;;10.55;78.25;93644.91;5094633;28;20448;-82
2022/02/22 00:10:36;;;;;;;29.47;21.83;;;;;;;10.61;78.69;93639.00;5075683;28;20801;-81
2022/02/22 00:13:03;;;;;;;27.97;19.13;;;;;;;10.72;78.54;93667.59;5094545;28;20836;-82
2022/02/22 00:15:30;;;;;;;26.53;20.20;;;;;;;10.71;78.08;93659.88;5058873;28;20439;-82
2022/02/22 00:17:59;;;;;;;27.97;20.00;;;;;;;10.83;77.72;93658.56;5095014;28;20523;-81
2022/02/22 00:20:26;;;;;;;29.57;18.97;;;;;;;10.89;78.15;93644.78;5059143;28;20448;-82
2022/02/22 00:22:52;;;;;;;29.77;19.93;;;;;;;10.95;76.79;93646.75;5094959;28;20468;-82
2022/02/22 00:25:19;;;;;;;22.93;16.67;;;;;;;11.06;77.55;93638.59;5094429;28;20479;-82
2022/02/22 00:27:46;;;;;;;21.93;16.17;;;;;;;11.14;76.87;93638.59;5094570;28;20448;-81
2022/02/22 00:30:15;;;;;;;18.60;15.33;;;;;;;11.22;77.34;93631.69;5094330;28;20535;-80
2022/02/22 00:32:42;;;;;;;19.17;15.40;;;;;;;11.22;76.31;93624.63;5094335;28;20424;-82
2022/02/22 00:35:11;;;;;;;18.70;13.67;;;;;;;11.26;75.23;93617.22;5094656;28;20428;-82
2022/02/22 00:37:38;;;;;;;24.13;17.00;;;;;;;11.23;75.88;93617.56;5094190;28;20519;-82
2022/02/22 00:40:07;;;;;;;16.57;13.53;;;;;;;11.21;76.96;93611.66;5094889;28;20512;-82
2022/02/22 00:42:34;;;;;;;14.80;13.00;;;;;;;11.29;76.58;93624.81;5094412;28;20455;-82
2022/02/22 00:45:02;;;;;;;16.93;12.87;;;;;;;11.31;76.31;93628.91;5094254;28;20923;-82
2022/02/22 00:47:29;;;;;;;15.13;13.17;;;;;;;11.29;76.14;93616.94;5094013;28;20449;-82
2022/02/22 00:49:56;;;;;;;23.23;14.57;;;;;;;11.32;76.00;93611.34;5094488;28;20435;-82
2022/02/22 00:52:24;;;;;;;15.90;11.60;;;;;;;11.27;76.37;93619.69;5094368;28;20444;-83
2022/02/22 00:54:52;;;;;;;16.17;12.20;;;;;;;11.05;77.02;93618.56;5093934;28;20984;-82
2022/02/22 00:57:19;;;;;;;17.60;13.10;;;;;;;11.14;77.13;93614.94;5093944;28;20442;-81
2022/02/22 00:59:46;;;;;;;18.50;13.60;;;;;;;11.28;76.58;93615.28;5057961;28;20539;-81
2022/02/22 01:02:13;;;;;;;26.13;14.50;;;;;;;11.29;76.71;93612.50;5092800;28;20883;-83
2022/02/22 01:04:40;;;;;;;12.70;10.60;;;;;;;11.27;77.26;93605.75;5093161;28;20803;-82
2022/02/22 01:07:07;;;;;;;16.67;11.10;;;;;;;11.30;76.72;93605.44;5093635;28;20483;-83
2022/02/22 01:09:35;;;;;;;14.07;9.80;;;;;;;11.28;77.98;93600.34;5094145;28;21011;-82
2022/02/22 01:12:03;;;;;;;14.80;11.00;;;;;;;11.26;76.95;93598.84;5093736;28;20930;-82
2022/02/22 01:14:30;;;;;;;15.37;12.63;;;;;;;11.24;77.42;93608.69;5093859;28;20519;-82
2022/02/22 01:16:57;;;;;;;23.70;14.60;;;;;;;11.21;76.54;93603.78;5093886;28;20432;-82
2022/02/22 01:19:24;;;;;;;22.70;16.47;;;;;;;11.12;77.35;93602.97;5093541;28;20867;-81
2022/02/22 01:25:39;;;;;;;24.90;16.90;;;;;;;11.27;76.29;93598.69;5090370;28;20474;-81
2022/02/22 01:28:06;;;;;;;25.77;17.80;;;;;;;11.34;76.12;93598.88;5073477;28;20857;-81
2022/02/22 01:30:33;;;;;;;20.97;16.50;;;;;;;11.30;75.54;93597.56;5073319;28;20915;-82
2022/02/22 01:33:00;;;;;;;25.37;18.13;;;;;;;11.34;75.74;93609.38;5073652;28;20433;-81
2022/02/22 01:35:27;;;;;;;26.37;20.30;;;;;;;11.32;77.67;93621.84;5072929;28;20807;-81
2022/02/22 01:37:54;;;;;;;28.77;21.17;;;;;;;11.17;77.85;93613.81;5073251;28;20433;-81
2022/02/22 01:40:21;;;;;;;32.97;22.27;;;;;;;11.16;77.55;93609.53;5073410;28;20451;-81
2022/02/22 01:42:50;;;;;;;25.10;20.23;;;;;;;11.20;76.92;93612.66;5073098;28;20930;-81
2022/02/22 01:45:19;;;;;;;30.83;20.30;;;;;;;11.24;78.07;93606.91;5073243;28;20445;-82
2022/02/22 01:47:46;;;;;;;31.90;20.70;;;;;;;11.25;77.38;93599.84;5072997;28;20445;-82
2022/02/22 01:50:13;;;;;;;25.60;20.00;;;;;;;11.30;77.13;93611.50;5072893;28;20425;-79
2022/02/22 01:52:40;;;;;;;27.57;19.67;;;;;;;11.36;77.10;93605.59;5071949;28;20473;-82
2022/02/22 01:55:08;;;;;;;24.97;19.00;;;;;;;11.33;77.31;93598.03;5071770;28;20444;-82
2022/02/22 01:57:36;;;;;;;26.97;19.27;;;;;;;11.38;76.94;93619.38;5071823;28;20440;-82
2022/02/22 02:00:08;;;;;;;29.83;20.03;;;;;;;11.43;76.27;93621.50;5071603;28;20436;-83
2022/02/22 02:02:36;;;;;;;32.97;22.40;;;;;;;11.24;77.18;93619.19;5069684;28;20805;-81
2022/02/22 02:05:03;;;;;;;38.07;22.00;;;;;;;11.07;78.06;93619.22;5071352;28;20443;-82
2022/02/22 02:07:30;;;;;;;34.93;21.87;;;;;;;11.06;77.91;93622.84;5072730;28;20533;-83
2022/02/22 02:09:57;;;;;;;33.20;21.00;;;;;;;11.08;78.60;93625.31;5071576;28;20970;-82
2022/02/22 02:12:24;;;;;;;28.67;21.70;;;;;;;11.07;78.40;93634.97;5071639;28;20440;-82
2022/02/22 02:14:51;;;;;;;25.73;19.90;;;;;;;10.94;78.42;93641.69;5075136;28;20440;-83
2022/02/22 02:17:20;;;;;;;32.23;21.87;;;;;;;11.04;79.50;93648.44;5075473;28;20452;-81
2022/02/22 02:19:46;;;;;;;26.90;21.13;;;;;;;11.05;79.17;93649.25;5075651;28;20555;-82
2022/02/22 02:22:15;;;;;;;26.23;19.57;;;;;;;11.12;77.99;93642.34;5075494;28;20451;-81
2022/02/22 02:24:42;;;;;;;19.87;17.77;;;;;;;11.13;78.71;93631.69;5075670;28;20870;-80
2022/02/22 02:27:08;;;;;;;25.50;18.10;;;;;;;11.17;78.28;93633.00;5075147;28;21028;-81
2022/02/22 02:29:35;;;;;;;28.40;19.90;;;;;;;11.19;78.60;93624.97;5075802;28;20476;-81
2022/02/22 02:32:02;;;;;;;27.03;18.57;;;;;;;11.18;78.61;93633.81;5075087;28;20962;-82
2022/02/22 02:34:30;;;;;;;31.47;19.57;;;;;;;11.30;79.42;93634.31;5075418;28;20830;-83
2022/02/22 02:36:57;;;;;;;26.97;19.03;;;;;;;11.36;78.77;93641.53;5074927;28;20818;-80
2022/02/22 02:39:26;;;;;;;23.77;20.13;;;;;;;11.43;78.89;93629.38;5075581;28;20472;-82
2022/02/22 02:41:52;;;;;;;24.70;18.70;;;;;;;11.46;77.46;93626.41;5075148;28;20810;-81
2022/02/22 02:44:22;;;;;;;26.33;20.23;;;;;;;11.52;77.19;93638.06;5075022;28;20490;-80
2022/02/22 02:46:49;;;;;;;22.90;18.33;;;;;;;11.55;77.35;93638.53;5074906;28;21033;-82
2022/02/22 02:49:17;;;;;;;27.60;20.07;;;;;;;11.55;77.37;93633.28;5075190;28;20436;-81
2022/02/22 02:51:46;;;;;;;26.07;19.67;;;;;;;11.54;76.59;93636.91;5074925;28;20445;-82
2022/02/22 02:54:13;;;;;;;24.23;19.10;;;;;;;11.54;76.60;93630.81;5074611;28;20440;-81
2022/02/22 02:56:42;;;;;;;27.60;20.77;;;;;;;11.57;77.58;93636.59;5074668;28;20441;-81
2022/02/22 02:59:11;;;;;;;27.00;20.37;;;;;;;11.57;77.80;93628.72;5074567;28;20448;-80
2022/02/22 03:01:40;;;;;;;31.63;20.90;;;;;;;11.56;77.71;93642.81;5074843;28;20437;-80
2022/02/22 03:04:07;;;;;;;27.30;21.10;;;;;;;11.57;77.51;93641.03;5074691;28;20532;-81
2022/02/22 03:06:34;;;;;;;30.40;19.90;;;;;;;11.56;77.18;93639.34;5074765;28;20484;-80
2022/02/22 03:09:02;;;;;;;26.83;19.70;;;;;;;11.54;76.82;93625.56;5074561;28;20792;-82
2022/02/22 03:11:28;;;;;;;25.23;19.87;;;;;;;11.53;76.85;93635.25;5074572;28;20456;-81
2022/02/22 03:13:57;;;;;;;24.23;18.67;;;;;;;11.50;77.98;93630.34;5074444;28;20928;-81
2022/02/22 03:16:24;;;;;;;30.97;21.87;;;;;;;11.45;78.55;93627.41;5039112;28;20955;-82
2022/02/22 03:18:51;;;;;;;27.50;20.47;;;;;;;11.52;77.50;93636.25;5074461;28;20445;-82
2022/02/22 03:21:18;;;;;;;26.80;20.20;;;;;;;11.55;78.19;93632.47;5074515;28;20803;-80
2022/02/22 03:23:44;;;;;;;23.53;19.37;;;;;;;11.55;77.30;93628.03;5074018;28;20447;-81
2022/02/22 03:26:12;;;;;;;26.43;19.00;;;;;;;11.56;78.04;93640.19;5058543;28;20480;-81
2022/02/22 03:28:39;;;;;;;34.30;20.93;;;;;;;11.56;76.62;93642.00;5094369;28;20446;-80
2022/02/22 03:31:07;;;;;;;26.23;18.97;;;;;;;11.56;76.66;93644.63;5094252;28;20447;-81
2022/02/22 03:33:35;;;;;;;30.53;20.93;;;;;;;11.54;77.07;93633.44;5094408;28;20432;-80
2022/02/22 03:36:02;;;;;;;25.70;20.17;;;;;;;11.55;77.71;93638.53;5094388;28;20456;-83
2022/02/22 03:38:29;;;;;;;26.13;19.10;;;;;;;11.58;77.76;93632.97;5094340;28;20428;-81
2022/02/22 03:40:56;;;;;;;26.37;20.73;;;;;;;11.60;77.19;93638.88;5094650;28;20471;-81
2022/02/22 03:43:23;;;;;;;28.00;20.63;;;;;;;11.57;77.27;93638.41;5094412;28;20489;-81
2022/02/22 03:45:50;;;;;;;31.03;20.00;;;;;;;11.60;78.10;93638.06;5093884;28;20455;-81
2022/02/22 03:48:18;;;;;;;24.83;18.70;;;;;;;11.57;77.29;93638.41;5094213;28;20452;-82
2022/02/22 03:50:45;;;;;;;21.77;17.00;;;;;;;11.52;77.50;93644.13;5058534;28;20452;-81
2022/02/22 03:53:12;;;;;;;25.33;17.70;;;;;;;11.45;76.94;93648.41;5093669;28;20451;-81
2022/02/22 03:55:39;;;;;;;19.00;16.63;;;;;;;11.43;78.35;93650.38;5075040;28;20451;-81
2022/02/22 03:58:06;;;;;;;20.70;16.60;;;;;;;11.39;77.47;93646.44;5074811;28;20445;-82
2022/02/22 04:00:35;;;;;;;22.60;16.53;;;;;;;11.37;77.19;93645.81;5093737;28;20451;-82
2022/02/22 04:03:03;;;;;;;25.97;16.60;;;;;;;11.39;77.29;93649.09;5094028;28;20450;-81
2022/02/22 04:05:32;;;;;;;20.80;17.00;;;;;;;11.31;76.79;93651.72;5093725;28;20960;-82
2022/02/22 04:07:59;;;;;;;23.90;17.67;;;;;;;11.12;78.15;93648.44;5074969;28;21085;-82
2022/02/22 04:10:26;;;;;;;22.40;16.50;;;;;;;11.09;79.61;93648.75;5093856;28;20444;-80
2022/02/22 04:12:53;;;;;;;22.53;17.40;;;;;;;11.11;79.91;93652.03;5093688;28;20458;-82
2022/02/22 04:15:20;;;;;;;21.90;17.80;;;;;;;11.10;79.51;93655.66;5093815;28;20440;-81
2022/02/22 04:17:47;;;;;;;27.10;20.23;;;;;;;11.13;79.56;93657.94;5093371;28;20432;-81
2022/02/22 04:20:14;;;;;;;29.50;20.17;;;;;;;11.01;80.27;93659.25;5094001;28;20454;-81
2022/02/22 04:22:43;;;;;;;27.10;20.43;;;;;;;10.90;81.18;93654.31;5093570;28;20448;-82
2022/02/22 04:25:10;;;;;;;27.57;20.53;;;;;;;10.92;81.62;93654.97;5093336;28;20454;-82
2022/02/22 04:27:37;;;;;;;34.63;20.17;;;;;;;11.00;81.24;93662.06;5093606;28;20489;-82
2022/02/22 04:30:05;;;;;;;29.23;20.30;;;;;;;11.02;82.16;93665.34;5093285;28;20883;-81
2022/02/22 04:32:32;;;;;;;29.33;20.17;;;;;;;11.10;83.21;93670.59;5093388;28;20451;-81
2022/02/22 04:34:59;;;;;;;23.17;20.10;;;;;;;11.14;83.04;93670.09;5093369;28;20448;-82
2022/02/22 04:37:26;;;;;;;32.10;20.20;;;;;;;11.16;82.86;93675.16;5093127;28;20454;-82
2022/02/22 04:39:55;;;;;;;24.90;20.03;;;;;;;11.20;82.62;93673.84;5093275;28;20454;-80
2022/02/22 04:42:22;;;;;;;25.20;20.73;;;;;;;11.23;82.37;93681.41;5093070;28;20869;-80
2022/02/22 04:44:49;;;;;;;23.87;18.93;;;;;;;11.28;82.61;93689.63;5092723;28;20447;-81
2022/02/22 04:47:16;;;;;;;28.90;19.50;;;;;;;11.31;81.48;93691.13;5092644;28;20479;-82
2022/02/22 04:49:43;;;;;;;29.50;19.07;;;;;;;11.29;81.20;93693.91;5091890;28;21014;-81
2022/02/22 04:52:10;;;;;;;26.23;18.33;;;;;;;11.30;81.88;93697.34;5092864;28;20470;-81
2022/02/22 04:54:37;;;;;;;23.00;17.23;;;;;;;11.28;82.20;93709.81;5092658;28;20452;-82
2022/02/22 04:57:06;;;;;;;18.10;13.13;;;;;;;11.24;83.03;93706.69;5092900;28;20454;-80
2022/02/22 04:59:33;;;;;;;17.73;9.40;;;;;;;11.08;83.52;93704.88;5092790;28;20444;-81
2022/02/22 05:02:00;;;;;;;11.70;9.27;;;;;;;10.85;84.53;93715.16;5092539;28;20808;-82
2022/02/22 05:04:27;;;;;;;8.50;7.60;;;;;;;10.60;86.00;93702.13;5092658;28;20639;-81
2022/02/22 05:06:54;;;;;;;9.33;8.23;;;;;;;10.30;88.12;93708.75;5092414;28;20490;-81
2022/02/22 05:09:21;;;;;;;7.00;6.20;;;;;;;10.12;87.73;93711.41;5092977;28;20444;-82
2022/02/22 05:11:48;;;;;;;9.60;6.30;;;;;;;9.91;89.99;93715.25;5092426;28;20452;-82
2022/02/22 05:14:17;;;;;;;6.67;5.00;;;;;;;9.72;91.77;93719.84;5092446;28;20455;-82
2022/02/22 05:16:44;;;;;;;7.33;6.60;;;;;;;9.72;92.52;93725.09;5092236;28;20454;-81
2022/02/22 05:19:11;;;;;;;9.10;7.00;;;;;;;9.75;94.19;93741.31;5093932;28;20942;-80
2022/02/22 05:21:38;;;;;;;9.40;6.43;;;;;;;9.70;95.24;93755.84;5093771;28;20444;-83
2022/02/22 05:24:06;;;;;;;8.00;7.17;;;;;;;9.63;96.63;93753.84;5095142;28;20440;-84
2022/02/22 05:26:33;;;;;;;8.57;7.33;;;;;;;9.50;98.86;93749.97;5097566;28;20464;-84
2022/02/22 05:29:00;;;;;;;14.27;8.47;;;;;;;9.40;100.00;93750.06;5095055;28;20436;-83
2022/02/22 05:31:29;;;;;;;14.70;8.77;;;;;;;9.45;100.00;93752.22;5093865;28;20801;-81
2022/02/22 05:33:57;;;;;;;13.80;8.80;;;;;;;9.51;100.00;93752.44;5093850;28;20444;-82
2022/02/22 05:36:24;;;;;;;12.27;9.50;;;;;;;9.56;100.00;93762.47;5094029;28;20456;-80
2022/02/22 05:38:51;;;;;;;15.60;8.80;;;;;;;9.62;100.00;93754.00;5093381;28;20448;-80
2022/02/22 05:41:18;;;;;;;12.53;9.73;;;;;;;9.48;100.00;93751.91;5093554;28;20432;-81
2022/02/22 05:43:46;;;;;;;14.05;8.20;;;;;;;9.39;100.00;93751.03;5093451;28;20433;-83
2022/02/22 05:46:14;;;;;;;14.63;8.93;;;;;;;9.39;100.00;93753.66;5094667;28;20260;-80
2022/02/22 05:48:42;;;;;;;15.07;8.63;;;;;;;9.54;100.00;93757.41;5095808;28;20472;-81
2022/02/22 05:51:09;;;;;;;11.80;7.97;;;;;;;10.93;100.00;93758.97;5097572;28;20909;-83
2022/02/22 05:53:37;;;;;;;8.87;7.60;;;;;;;11.27;98.86;93764.13;5098066;28;20894;-80
2022/02/22 05:56:04;;;;;;;12.47;7.33;;;;;;;11.26;95.69;93769.53;5097351;28;20428;-81
2022/02/22 05:58:31;;;;;;;12.00;9.27;;;;;;;11.23;93.80;93775.13;5097675;28;20428;-80
2022/02/22 06:00:58;;;;;;;13.70;10.23;;;;;;;11.23;94.08;93769.88;5098304;28;20440;-80
2022/02/22 06:03:25;;;;;;;14.80;10.07;;;;;;;11.24;94.87;93767.06;5097564;28;20465;-81
2022/02/22 06:05:54;;;;;;;13.63;9.10;;;;;;;11.24;94.70;93774.13;5097594;28;20444;-81
2022/02/22 06:08:21;;;;;;;13.60;9.13;;;;;;;11.26;95.07;93761.66;5097362;28;20826;-80
2022/02/22 06:10:48;;;;;;;14.37;9.07;;;;;;;11.21;95.17;93766.59;5096845;28;20427;-81
2022/02/22 06:13:15;;;;;;;15.43;9.50;;;;;;;11.18;96.36;93768.53;5096996;28;20420;-79
2022/02/22 06:15:42;;;;;;;15.30;10.77;;;;;;;11.17;96.33;93776.59;5096914;28;20431;-81
2022/02/22 06:28:16;;;;;;;12.83;9.43;;;;;;;10.87;96.95;93783.22;5074152;28;20490;-83
2022/02/22 06:30:43;;;;;;;13.23;7.70;;;;;;;10.85;98.29;93782.56;5041597;28;20429;-81
2022/02/22 06:33:10;;;;;;;15.93;8.00;;;;;;;10.91;100.00;93781.09;5077747;28;20429;-89
2022/02/22 06:35:37;;;;;;;19.00;8.33;;;;;;;11.10;100.00;93783.47;5076966;28;20463;-83
2022/02/22 06:41:29;;;;;;;11.35;8.73;;;;;;;11.29;100.00;93782.38;5075532;28;20823;-82
2022/02/22 06:43:57;;;;;;;13.20;8.53;;;;;;;11.35;98.92;93773.84;5076349;28;20190;-84
2022/02/22 06:46:24;;;;;;;12.60;9.10;;;;;;;11.41;97.38;93773.19;5077052;28;20440;-86
2022/02/22 06:48:51;;;;;;;12.03;7.67;;;;;;;11.53;97.34;93777.13;5076610;28;20477;-81
2022/02/22 06:51:18;;;;;;;10.43;8.00;;;;;;;11.70;97.55;93768.28;5076172;28;20448;-85
2022/02/22 06:53:45;;;;;;;11.13;8.50;;;;;;;11.59;94.36;93768.63;5096368;28;20470;-86
2022/02/22 06:56:30;;;;;;;11.20;9.03;;;;;;;11.77;93.84;93776.31;5096164;28;20454;-86
2022/02/22 06:58:59;;;;;;;8.90;7.10;;;;;;;11.28;90.98;93784.19;5096439;28;20440;-85
2022/02/22 07:01:26;;;;;;;6.80;6.20;;;;;;;11.49;92.45;93774.00;5097232;28;20293;-88
2022/02/22 07:03:53;;;;;;;8.43;7.57;;;;;;;11.55;93.34;93772.53;5097183;28;20455;-88
2022/02/22 07:06:20;;;;;;;8.43;7.60;;;;;;;11.81;92.93;93777.66;5096601;28;20451;-86
2022/02/22 07:11:28;;;;;;;9.90;7.60;;;;;;;11.77;91.05;93764.00;5053687;28;20454;-88
2022/02/22 07:13:55;;;;;;;13.97;9.57;;;;;;;11.71;91.79;93767.28;5055062;28;20438;-85
2022/02/22 07:16:23;;;;;;;9.53;7.63;;;;;;;11.78;92.28;93768.28;5045471;28;20550;-83
2022/02/22 07:18:50;;;;;;;7.90;6.60;;;;;;;11.64;90.67;93770.75;5051335;28;21250;-83
2022/02/22 07:21:17;;;;;;;8.20;6.97;;;;;;;11.43;89.37;93764.16;5053319;28;20460;-83
2022/02/22 07:23:44;;;;;;;12.57;6.67;;;;;;;11.41;91.25;93770.56;5052930;28;20441;-82
2022/02/22 07:26:11;;;;;;;7.40;6.70;;;;;;;11.42;91.38;93769.56;5053541;28;20548;-84
2022/02/22 07:28:38;;;;;;;12.70;9.10;;;;;;;11.38;91.96;93768.25;5060982;28;20493;-82
2022/02/22 07:31:06;;;;;;;8.87;8.03;;;;;;;11.45;93.48;93770.06;5040402;28;20445;-85
2022/02/22 07:47:00;;;;;;;14.90;8.50;;;;;;;11.51;92.43;93783.53;5074110;28;20419;-83
2022/02/22 07:49:27;;;;;;;9.70;8.17;;;;;;;11.48;93.21;93789.94;5075319;28;20560;-83
2022/02/22 07:51:54;;;;;;;9.90;8.13;;;;;;;11.53;93.38;93784.19;5094266;28;20926;-83
2022/02/22 07:54:21;;;;;;;10.23;7.17;;;;;;;11.57;92.44;93778.47;5095430;28;20440;-82
2022/02/22 07:56:48;;;;;;;16.00;10.07;;;;;;;11.62;92.45;93784.06;5026788;28;20501;-82
2022/02/22 07:59:15;;;;;;;27.50;14.80;;;;;;;11.60;92.86;93779.94;5095015;28;20440;-82
2022/02/22 08:01:42;;;;;;;26.00;16.77;;;;;;;11.60;94.85;93777.31;5095301;28;20460;-84
2022/02/22 08:04:10;;;;;;;23.47;12.20;;;;;;;11.62;94.13;93776.16;5095613;28;20542;-82
2022/02/22 08:06:37;;;;;;;11.83;9.10;;;;;;;11.69;93.74;93781.59;5094964;28;20425;-82
2022/02/22 08:09:04;;;;;;;15.10;10.90;;;;;;;11.77;93.44;93769.25;5095086;28;20471;-82
2022/02/22 08:12:05;;;;;;;19.17;13.60;;;;;;;12.04;91.87;93772.56;5059213;28;20443;-82
2022/02/22 08:14:32;;;;;;;9.77;8.20;;;;;;;12.22;91.44;93767.94;5094746;28;20435;-84
2022/02/22 08:17:00;;;;;;;8.30;6.63;;;;;;;12.48;90.76;93783.50;5058850;28;20975;-82
2022/02/22 08:19:29;;;;;;;14.20;7.30;;;;;;;12.63;89.93;93773.06;5074809;28;20491;-81
2022/02/22 08:21:56;;;;;;;8.57;5.80;;;;;;;12.87;89.21;93782.69;5074347;28;20436;-85
2022/02/22 08:31:13;;;;;;;6.17;4.07;;;;;;;13.26;83.73;93782.69;5054191;28;20908;-82
2022/02/22 08:33:40;;;;;;;5.67;4.80;;;;;;;13.26;83.75;93796.69;5055146;28;20437;-83
2022/02/22 08:36:10;;;;;;;5.80;5.07;;;;;;;13.31;83.71;93793.56;5054569;28;20495;-83
2022/02/22 09:16:03;;;;;;;12.67;11.37;;;;;;;12.17;84.54;93833.38;5073245;28;20460;-86
2022/02/22 09:18:30;;;;;;;14.00;11.33;;;;;;;12.00;87.29;93837.78;5092922;28;20448;-83
2022/02/22 09:20:57;;;;;;;18.13;15.03;;;;;;;11.73;89.08;93833.66;5094056;28;20455;-83
2022/02/22 09:23:24;;;;;;;15.00;13.50;;;;;;;11.53;88.26;93834.91;5093929;28;20445;-86
2022/02/22 09:25:51;;;;;;;17.77;14.53;;;;;;;11.34;89.74;93836.06;5093410;28;20536;-85
2022/02/22 09:28:18;;;;;;;25.43;15.63;;;;;;;11.21;90.78;93829.59;5093449;28;20988;-82
2022/02/22 09:30:45;;;;;;;18.50;13.57;;;;;;;11.22;90.99;93844.38;5093296;28;20467;-82
2022/02/22 09:33:14;;;;;;;16.83;14.00;;;;;;;11.13;90.82;93840.91;5093614;28;20909;-83
2022/02/22 09:45:53;;;;;;;14.07;10.77;;;;;;;10.56;94.41;93840.66;5073714;28;20447;-84
2022/02/22 09:48:21;;;;;;;17.20;12.67;;;;;;;10.40;94.91;93849.22;5089083;28;20471;-83
2022/02/22 09:50:48;;;;;;;15.53;11.83;;;;;;;10.04;96.07;93855.50;5093086;28;20441;-83
2022/02/22 09:53:15;;;;;;;14.27;12.80;;;;;;;9.86;97.81;93871.28;5093833;28;20457;-83
2022/02/22 09:55:42;;;;;;;18.17;14.87;;;;;;;9.69;99.05;93866.84;5093486;28;20918;-83
2022/02/22 09:58:09;;;;;;;12.53;9.70;;;;;;;9.20;99.36;93876.81;5093423;28;20433;-82
2022/02/22 10:00:36;;;;;;;12.00;10.30;;;;;;;9.02;100.00;93855.84;5093151;28;20447;-88
2022/02/22 10:03:04;;;;;;;12.70;10.23;;;;;;;8.64;100.00;93875.97;5041888;28;20485;-83
2022/02/22 10:05:32;;;;;;;12.30;8.67;;;;;;;8.45;100.00;93862.16;5094031;28;20446;-82
2022/02/22 10:08:03;;;;;;;9.63;7.60;;;;;;;8.35;100.00;93880.47;5093187;28;21336;-84
2022/02/22 10:10:35;;;;;;;8.70;7.70;;;;;;;8.35;100.00;93891.75;5094091;28;20560;-83
2022/02/22 10:13:02;;;;;;;7.87;7.07;;;;;;;8.21;100.00;93886.13;5094185;28;20438;-83
2022/02/22 10:21:40;;;;;;;5.87;5.33;;;;;;;7.72;100.00;93908.84;5050505;28;20959;-83
2022/02/22 10:24:08;;;;;;;5.30;4.10;;;;;;;7.53;100.00;93909.66;5052576;28;20451;-91
2022/02/22 10:26:35;;;;;;;6.07;5.43;;;;;;;7.46;100.00;93918.97;5041623;28;20561;-85
2022/02/22 10:29:13;;;;;;;5.17;4.70;;;;;;;7.45;100.00;93919.94;5041135;28;20503;-92
2022/02/22 10:31:40;;;;;;;4.57;3.50;;;;;;;7.26;100.00;93914.69;5056851;28;20458;-86
2022/02/22 10:34:07;;;;;;;4.07;3.73;;;;;;;7.19;100.00;93926.59;5054803;28;20457;-88
2022/02/22 10:36:38;;;;;;;3.83;3.53;;;;;;;6.92;100.00;93927.22;5056958;28;20445;-86
2022/02/22 10:39:06;;;;;;;4.47;4.03;;;;;;;6.70;100.00;93917.81;5054999;28;20445;-87
2022/02/22 10:41:37;;;;;;;3.90;3.60;;;;;;;6.59;100.00;93925.69;5055271;28;20441;-87
2022/02/22 10:44:05;;;;;;;4.60;4.20;;;;;;;6.51;100.00;93932.38;5053621;28;20450;-81
2022/02/22 10:46:35;;;;;;;4.93;4.43;;;;;;;6.45;100.00;93929.47;5054641;28;20288;-87
2022/02/22 10:49:05;;;;;;;3.97;3.60;;;;;;;6.35;100.00;93926.81;5054659;28;20572;-81
2022/02/22 10:51:35;;;;;;;3.60;3.30;;;;;;;6.35;100.00;93942.44;5054135;28;20560;-80
2022/02/22 10:54:04;;;;;;;5.33;4.50;;;;;;;6.45;100.00;93937.31;5021589;28;20456;-82
2022/02/22 10:56:32;;;;;;;8.67;5.67;;;;;;;6.51;100.00;93942.00;5093835;28;20971;-82
2022/02/22 10:58:59;;;;;;;4.27;3.87;;;;;;;6.38;100.00;93947.41;5096674;28;21197;-80
2022/02/22 11:04:48;;;;;;;7.20;4.83;;;;;;;6.06;100.00;93921.41;5096077;28;20507;-83
2022/02/22 11:07:18;;;;;;;5.37;4.77;;;;;;;6.11;100.00;93940.13;5097113;28;20452;-82
2022/02/22 11:09:48;;;;;;;3.80;3.50;;;;;;;5.99;100.00;93935.91;5096199;28;20813;-81
2022/02/22 11:12:23;;;;;;;4.43;3.97;;;;;;;5.93;100.00;93935.59;5096533;28;20428;-81
2022/02/22 11:14:50;;;;;;;4.37;3.87;;;;;;;5.85;100.00;93929.19;5096209;28;20435;-85
2022/02/22 11:17:19;;;;;;;4.07;3.63;;;;;;;5.66;100.00;93933.41;5095998;28;20435;-82
2022/02/22 11:19:46;;;;;;;9.53;4.20;;;;;;;5.66;100.00;93934.25;5096017;28;20440;-82
2022/02/22 11:22:16;;;;;;;5.27;4.70;;;;;;;5.63;100.00;93931.06;5096070;28;20490;-83
2022/02/22 11:28:08;;;;;;;6.07;4.83;;;;;;;5.60;100.00;93935.56;5095170;28;20432;-84
2022/02/22 11:30:36;;;;;;;4.80;3.90;;;;;;;5.63;100.00;93939.69;5040379;28;20563;-84
2022/02/22 11:33:08;;;;;;;6.20;4.20;;;;;;;5.60;100.00;93938.16;5040849;28;20437;-84
2022/02/22 11:35:46;;;;;;;4.07;3.77;;;;;;;5.61;100.00;93941.59;5090422;28;20452;-83
2022/02/22 11:41:40;;;;;;;4.43;4.03;;;;;;;5.78;100.00;93937.63;5077612;28;21050;-82
2022/02/22 11:44:15;;;;;;;3.97;3.67;;;;;;;5.88;100.00;93928.13;5053128;28;20464;-84
2022/02/22 11:46:44;;;;;;;5.70;4.87;;;;;;;5.97;100.00;93929.16;5077797;28;20459;-84
2022/02/22 11:49:13;;;;;;;9.90;6.50;;;;;;;6.02;100.00;93927.84;5040887;28;20494;-84
2022/02/22 11:51:42;;;;;;;6.63;5.37;;;;;;;6.11;100.00;93927.09;5088718;28;20463;-84
2022/02/22 11:54:20;;;;;;;6.90;5.60;;;;;;;6.15;100.00;93922.44;5089577;28;21006;-83
2022/02/22 11:56:47;;;;;;;5.27;4.77;;;;;;;6.14;100.00;93924.22;5075451;28;20441;-82
2022/02/22 11:59:18;;;;;;;8.90;7.50;;;;;;;6.08;100.00;93937.75;5075214;28;20975;-83
2022/02/22 12:01:45;;;;;;;8.73;7.83;;;;;;;6.05;100.00;93932.78;5076601;28;20448;-84
2022/02/22 12:04:23;;;;;;;7.90;6.50;;;;;;;6.02;100.00;93934.81;5076854;28;20461;-85
2022/02/22 12:06:54;;;;;;;5.30;4.80;;;;;;;5.99;100.00;93925.47;5075587;28;20452;-85
2022/02/22 12:09:34;;;;;;;9.30;8.30;;;;;;;5.96;100.00;93925.75;5075204;28;20491;-84
2022/02/22 12:12:06;;;;;;;12.63;9.50;;;;;;;6.01;100.00;93933.16;5074929;28;20432;-84
2022/02/22 12:14:34;;;;;;;6.57;5.83;;;;;;;5.98;100.00;93905.59;5074564;28;20520;-82
2022/02/22 12:17:05;;;;;;;4.97;4.57;;;;;;;6.07;100.00;93928.31;5083492;28;20456;-81
2022/02/22 12:19:32;;;;;;;5.77;5.23;;;;;;;6.04;100.00;93931.13;5044271;28;20441;-81
2022/02/22 12:21:59;;;;;;;5.00;4.60;;;;;;;6.12;100.00;93926.13;5074642;28;20451;-81
2022/02/22 12:24:26;;;;;;;5.73;4.90;;;;;;;6.18;100.00;93933.44;5023237;28;20476;-81
2022/02/22 12:26:53;;;;;;;4.40;4.10;;;;;;;6.18;100.00;93936.03;5074300;28;20437;-80
2022/02/22 12:29:23;;;;;;;5.33;4.83;;;;;;;6.25;100.00;93938.13;5074726;28;20496;-81
2022/02/22 12:31:55;;;;;;;5.93;4.97;;;;;;;6.17;100.00;93943.97;5074203;28;20448;-81
2022/02/22 12:34:24;;;;;;;6.47;5.27;;;;;;;6.21;100.00;93950.59;5073158;28;20475;-81
2022/02/22 12:36:57;;;;;;;4.90;4.50;;;;;;;6.18;99.30;93959.47;5073168;28;20445;-79
2022/02/22 12:39:29;;;;;;;4.70;4.27;;;;;;;6.11;99.64;93966.16;5073095;28;20499;-81
2022/02/22 12:41:58;;;;;;;5.37;4.87;;;;;;;6.08;99.77;93974.22;5073142;28;20528;-81
2022/02/22 12:44:27;;;;;;;6.30;4.03;;;;;;;5.98;100.00;93969.88;5072832;28;20445;-81
2022/02/22 12:47:00;;;;;;;5.63;5.23;;;;;;;6.05;100.00;93974.44;5073319;28;20448;-81
2022/02/22 12:49:28;;;;;;;9.47;5.97;;;;;;;6.12;100.00;93970.41;5073267;28;20487;-81
2022/02/22 12:52:00;;;;;;;6.05;5.40;;;;;;;6.06;99.40;93970.88;5085773;28;20433;-79
2022/02/22 12:54:27;;;;;;;11.50;6.10;;;;;;;6.04;97.94;93980.59;5093218;28;20198;-79
2022/02/22 12:56:56;;;;;;;6.30;5.00;;;;;;;5.95;99.04;93977.94;5093715;28;20436;-79
2022/02/22 13:09:29;;;;;;;6.57;5.45;;;;;;;5.68;98.71;93991.38;5092206;28;20435;-80
2022/02/22 13:11:58;;;;;;;7.00;5.93;;;;;;;5.56;99.64;94004.44;5093888;28;20189;-78
2022/02/22 13:14:25;;;;;;;5.43;5.00;;;;;;;5.63;99.06;94017.75;5093813;28;20432;-79
2022/02/22 13:16:55;;;;;;;7.20;6.50;;;;;;;5.51;98.66;94014.38;5093860;28;20442;-78
2022/02/22 13:19:42;;;;;;;6.60;5.00;;;;;;;5.58;99.82;94007.72;5093997;28;20475;-78
2022/02/22 13:22:22;;;;;;;10.27;5.60;;;;;;;5.59;99.92;94022.41;5093958;28;20507;-79